sensor_id;sensor_type;location;lat;lon;timestamp;P1;durP1;ratioP1;P2;durP2;ratioP2
29240;SDS011;16268;49.880;8.648;2023-03-29T00:01:06;5.90;;;1.58;;
29240;SDS011;16268;49.880;8.648;2023-03-29T00:03:33;4.22;;;1.63;;
29240;SDS011;16268;49.880;8.648;2023-03-29T00:05:59;5.50;;;1.73;;
29240;SDS011;16268;49.880;8.648;2023-03-29T00:08:29;4.15;;;1.73;;
29240;SDS011;16268;49.880;8.648;2023-03-29T00:10:56;4.60;;;1.70;;
29240;SDS011;16268;49.880;8.648;2023-03-29T00:13:23;4.20;;;1.73;;
29240;SDS011;16268;49.880;8.648;2023-03-29T00:15:50;4.90;;;1.77;;
29240;SDS011;16268;49.880;8.648;2023-03-29T00:18:16;4.47;;;1.77;;
29240;SDS011;16268;49.880;8.648;2023-03-29T00:20:41;5.05;;;1.63;;
29240;SDS011;16268;49.880;8.648;2023-03-29T00:23:07;3.97;;;1.80;;
29240;SDS011;16268;49.880;8.648;2023-03-29T00:25:33;5.65;;;1.75;;
29240;SDS011;16268;49.880;8.648;2023-03-29T00:27:58;5.53;;;1.55;;
29240;SDS011;16268;49.880;8.648;2023-03-29T00:30:24;4.47;;;1.70;;
29240;SDS011;16268;49.880;8.648;2023-03-29T00:32:49;5.88;;;1.70;;
29240;SDS011;16268;49.880;8.648;2023-03-29T00:35:15;4.93;;;1.90;;
29240;SDS011;16268;49.880;8.648;2023-03-29T00:37:41;4.10;;;1.80;;
29240;SDS011;16268;49.880;8.648;2023-03-29T00:40:07;4.95;;;1.65;;
29240;SDS011;16268;49.880;8.648;2023-03-29T00:42:35;5.32;;;1.88;;
29240;SDS011;16268;49.880;8.648;2023-03-29T00:45:04;3.60;;;1.48;;
29240;SDS011;16268;49.880;8.648;2023-03-29T00:50:14;3.22;;;1.50;;
29240;SDS011;16268;49.880;8.648;2023-03-29T00:52:41;3.92;;;1.63;;
29240;SDS011;16268;49.880;8.648;2023-03-29T00:55:11;3.53;;;1.63;;
29240;SDS011;16268;49.880;8.648;2023-03-29T00:57:41;4.80;;;1.60;;
29240;SDS011;16268;49.880;8.648;2023-03-29T01:00:10;4.95;;;1.70;;
29240;SDS011;16268;49.880;8.648;2023-03-29T01:02:38;5.75;;;1.88;;
29240;SDS011;16268;49.880;8.648;2023-03-29T01:05:07;3.85;;;1.70;;
29240;SDS011;16268;49.880;8.648;2023-03-29T01:07:54;4.88;;;1.50;;
29240;SDS011;16268;49.880;8.648;2023-03-29T01:10:34;3.53;;;1.50;;
29240;SDS011;16268;49.880;8.648;2023-03-29T01:13:09;5.28;;;1.65;;
29240;SDS011;16268;49.880;8.648;2023-03-29T01:15:37;4.68;;;1.70;;
29240;SDS011;16268;49.880;8.648;2023-03-29T01:18:06;4.70;;;1.95;;
29240;SDS011;16268;49.880;8.648;2023-03-29T01:23:24;5.82;;;2.00;;
29240;SDS011;16268;49.880;8.648;2023-03-29T01:31:59;5.22;;;2.00;;
29240;SDS011;16268;49.880;8.648;2023-03-29T01:37:27;4.18;;;2.17;;
29240;SDS011;16268;49.880;8.648;2023-03-29T01:39:58;5.18;;;2.05;;
29240;SDS011;16268;49.880;8.648;2023-03-29T01:45:23;5.30;;;2.22;;
29240;SDS011;16268;49.880;8.648;2023-03-29T01:47:56;4.85;;;2.00;;
29240;SDS011;16268;49.880;8.648;2023-03-29T01:50:38;5.85;;;2.38;;
29240;SDS011;16268;49.880;8.648;2023-03-29T01:53:33;6.38;;;2.50;;
29240;SDS011;16268;49.880;8.648;2023-03-29T01:56:20;6.07;;;2.33;;
29240;SDS011;16268;49.880;8.648;2023-03-29T01:58:54;4.07;;;2.05;;
29240;SDS011;16268;49.880;8.648;2023-03-29T02:01:25;5.88;;;2.00;;
29240;SDS011;16268;49.880;8.648;2023-03-29T02:03:56;6.22;;;2.33;;
29240;SDS011;16268;49.880;8.648;2023-03-29T02:06:27;5.22;;;1.92;;
29240;SDS011;16268;49.880;8.648;2023-03-29T02:08:56;5.93;;;2.20;;
29240;SDS011;16268;49.880;8.648;2023-03-29T02:11:23;6.72;;;2.10;;
29240;SDS011;16268;49.880;8.648;2023-03-29T02:13:51;6.32;;;2.30;;
29240;SDS011;16268;49.880;8.648;2023-03-29T02:16:17;5.72;;;2.35;;
29240;SDS011;16268;49.880;8.648;2023-03-29T02:18:43;3.67;;;1.90;;
29240;SDS011;16268;49.880;8.648;2023-03-29T02:21:23;6.78;;;2.10;;
29240;SDS011;16268;49.880;8.648;2023-03-29T02:23:56;6.25;;;2.25;;
29240;SDS011;16268;49.880;8.648;2023-03-29T02:26:24;3.45;;;2.00;;
29240;SDS011;16268;49.880;8.648;2023-03-29T02:28:50;4.28;;;1.92;;
29240;SDS011;16268;49.880;8.648;2023-03-29T02:31:51;6.20;;;2.10;;
29240;SDS011;16268;49.880;8.648;2023-03-29T02:34:23;4.28;;;2.10;;
29240;SDS011;16268;49.880;8.648;2023-03-29T02:37:01;4.82;;;2.00;;
29240;SDS011;16268;49.880;8.648;2023-03-29T02:39:32;4.78;;;2.30;;
29240;SDS011;16268;49.880;8.648;2023-03-29T02:41:59;4.97;;;1.98;;
29240;SDS011;16268;49.880;8.648;2023-03-29T02:44:27;3.72;;;2.10;;
29240;SDS011;16268;49.880;8.648;2023-03-29T02:46:57;7.03;;;2.20;;
29240;SDS011;16268;49.880;8.648;2023-03-29T02:49:26;5.25;;;2.38;;
29240;SDS011;16268;49.880;8.648;2023-03-29T02:51:52;4.75;;;2.00;;
29240;SDS011;16268;49.880;8.648;2023-03-29T02:54:22;6.15;;;2.28;;
29240;SDS011;16268;49.880;8.648;2023-03-29T02:56:59;6.22;;;2.22;;
29240;SDS011;16268;49.880;8.648;2023-03-29T02:59:30;7.03;;;2.67;;
29240;SDS011;16268;49.880;8.648;2023-03-29T03:01:57;5.18;;;2.22;;
29240;SDS011;16268;49.880;8.648;2023-03-29T03:04:23;4.47;;;2.35;;
29240;SDS011;16268;49.880;8.648;2023-03-29T03:06:49;5.05;;;2.45;;
29240;SDS011;16268;49.880;8.648;2023-03-29T03:09:15;5.90;;;2.70;;
29240;SDS011;16268;49.880;8.648;2023-03-29T03:11:41;6.47;;;2.67;;
29240;SDS011;16268;49.880;8.648;2023-03-29T03:14:07;7.57;;;3.10;;
29240;SDS011;16268;49.880;8.648;2023-03-29T03:16:33;9.60;;;3.92;;
29240;SDS011;16268;49.880;8.648;2023-03-29T03:18:59;11.07;;;4.85;;
29240;SDS011;16268;49.880;8.648;2023-03-29T03:21:25;16.60;;;7.20;;
29240;SDS011;16268;49.880;8.648;2023-03-29T03:23:52;15.75;;;6.78;;
29240;SDS011;16268;49.880;8.648;2023-03-29T03:26:18;32.72;;;14.38;;
29240;SDS011;16268;49.880;8.648;2023-03-29T03:28:44;37.83;;;17.42;;
29240;SDS011;16268;49.880;8.648;2023-03-29T03:31:10;17.50;;;7.95;;
29240;SDS011;16268;49.880;8.648;2023-03-29T03:33:38;16.67;;;7.05;;
29240;SDS011;16268;49.880;8.648;2023-03-29T03:36:05;8.35;;;3.80;;
29240;SDS011;16268;49.880;8.648;2023-03-29T03:38:32;5.45;;;2.83;;
29240;SDS011;16268;49.880;8.648;2023-03-29T03:40:58;6.35;;;3.25;;
29240;SDS011;16268;49.880;8.648;2023-03-29T03:43:24;5.65;;;2.78;;
29240;SDS011;16268;49.880;8.648;2023-03-29T03:45:51;7.55;;;3.15;;
29240;SDS011;16268;49.880;8.648;2023-03-29T03:48:16;5.50;;;2.72;;
29240;SDS011;16268;49.880;8.648;2023-03-29T03:50:49;4.80;;;2.47;;
29240;SDS011;16268;49.880;8.648;2023-03-29T03:53:19;5.10;;;2.53;;
29240;SDS011;16268;49.880;8.648;2023-03-29T03:55:46;4.82;;;2.63;;
29240;SDS011;16268;49.880;8.648;2023-03-29T03:58:13;6.78;;;2.72;;
29240;SDS011;16268;49.880;8.648;2023-03-29T04:00:38;7.43;;;3.00;;
29240;SDS011;16268;49.880;8.648;2023-03-29T04:03:04;7.28;;;3.03;;
29240;SDS011;16268;49.880;8.648;2023-03-29T04:05:29;6.57;;;3.05;;
29240;SDS011;16268;49.880;8.648;2023-03-29T04:07:55;10.05;;;3.10;;
29240;SDS011;16268;49.880;8.648;2023-03-29T04:10:21;6.25;;;3.28;;
29240;SDS011;16268;49.880;8.648;2023-03-29T04:12:46;5.75;;;2.85;;
29240;SDS011;16268;49.880;8.648;2023-03-29T04:15:12;6.40;;;3.22;;
29240;SDS011;16268;49.880;8.648;2023-03-29T04:17:37;6.93;;;2.63;;
29240;SDS011;16268;49.880;8.648;2023-03-29T04:20:03;6.10;;;3.10;;
29240;SDS011;16268;49.880;8.648;2023-03-29T04:22:36;8.00;;;2.97;;
29240;SDS011;16268;49.880;8.648;2023-03-29T04:25:03;7.50;;;3.53;;
29240;SDS011;16268;49.880;8.648;2023-03-29T04:27:29;8.40;;;3.30;;
29240;SDS011;16268;49.880;8.648;2023-03-29T04:29:55;5.63;;;2.90;;
29240;SDS011;16268;49.880;8.648;2023-03-29T04:32:21;8.40;;;3.50;;
29240;SDS011;16268;49.880;8.648;2023-03-29T04:34:47;6.20;;;2.50;;
29240;SDS011;16268;49.880;8.648;2023-03-29T04:37:12;7.13;;;3.00;;
29240;SDS011;16268;49.880;8.648;2023-03-29T04:39:38;5.85;;;2.70;;
29240;SDS011;16268;49.880;8.648;2023-03-29T04:42:04;7.97;;;3.00;;
29240;SDS011;16268;49.880;8.648;2023-03-29T04:44:30;7.88;;;2.60;;
29240;SDS011;16268;49.880;8.648;2023-03-29T04:46:59;7.93;;;2.80;;
29240;SDS011;16268;49.880;8.648;2023-03-29T04:49:25;6.28;;;2.90;;
29240;SDS011;16268;49.880;8.648;2023-03-29T04:51:50;6.18;;;3.13;;
29240;SDS011;16268;49.880;8.648;2023-03-29T04:54:17;6.32;;;3.25;;
29240;SDS011;16268;49.880;8.648;2023-03-29T04:56:42;6.80;;;2.88;;
29240;SDS011;16268;49.880;8.648;2023-03-29T04:59:08;6.00;;;2.92;;
29240;SDS011;16268;49.880;8.648;2023-03-29T05:01:33;7.63;;;3.15;;
29240;SDS011;16268;49.880;8.648;2023-03-29T05:03:59;8.77;;;3.50;;
29240;SDS011;16268;49.880;8.648;2023-03-29T05:06:25;7.78;;;2.97;;
29240;SDS011;16268;49.880;8.648;2023-03-29T05:08:50;5.10;;;2.83;;
29240;SDS011;16268;49.880;8.648;2023-03-29T05:11:16;6.57;;;3.28;;
29240;SDS011;16268;49.880;8.648;2023-03-29T05:13:43;6.78;;;3.15;;
29240;SDS011;16268;49.880;8.648;2023-03-29T05:16:09;5.78;;;2.85;;
29240;SDS011;16268;49.880;8.648;2023-03-29T05:18:35;7.78;;;2.90;;
29240;SDS011;16268;49.880;8.648;2023-03-29T05:21:00;5.93;;;2.83;;
29240;SDS011;16268;49.880;8.648;2023-03-29T05:23:26;5.00;;;2.60;;
29240;SDS011;16268;49.880;8.648;2023-03-29T05:25:52;6.80;;;2.97;;
29240;SDS011;16268;49.880;8.648;2023-03-29T05:28:18;7.53;;;2.90;;
29240;SDS011;16268;49.880;8.648;2023-03-29T05:30:44;5.43;;;2.53;;
29240;SDS011;16268;49.880;8.648;2023-03-29T05:33:10;5.30;;;2.90;;
29240;SDS011;16268;49.880;8.648;2023-03-29T05:35:36;7.25;;;2.83;;
29240;SDS011;16268;49.880;8.648;2023-03-29T05:38:02;8.82;;;2.97;;
29240;SDS011;16268;49.880;8.648;2023-03-29T05:40:29;9.70;;;3.15;;
29240;SDS011;16268;49.880;8.648;2023-03-29T05:42:55;6.43;;;2.75;;
29240;SDS011;16268;49.880;8.648;2023-03-29T05:45:22;7.97;;;2.83;;
29240;SDS011;16268;49.880;8.648;2023-03-29T05:47:48;8.20;;;3.17;;
29240;SDS011;16268;49.880;8.648;2023-03-29T05:50:14;6.63;;;3.05;;
29240;SDS011;16268;49.880;8.648;2023-03-29T05:52:39;9.60;;;3.17;;
29240;SDS011;16268;49.880;8.648;2023-03-29T05:55:05;9.73;;;3.30;;
29240;SDS011;16268;49.880;8.648;2023-03-29T05:57:34;7.22;;;3.10;;
29240;SDS011;16268;49.880;8.648;2023-03-29T06:00:01;7.30;;;3.10;;
29240;SDS011;16268;49.880;8.648;2023-03-29T06:02:44;7.78;;;3.58;;
29240;SDS011;16268;49.880;8.648;2023-03-29T06:05:09;7.93;;;3.75;;
29240;SDS011;16268;49.880;8.648;2023-03-29T06:07:35;6.82;;;3.42;;
29240;SDS011;16268;49.880;8.648;2023-03-29T06:10:02;7.72;;;3.03;;
29240;SDS011;16268;49.880;8.648;2023-03-29T06:12:28;6.07;;;3.17;;
29240;SDS011;16268;49.880;8.648;2023-03-29T06:14:54;7.82;;;3.55;;
29240;SDS011;16268;49.880;8.648;2023-03-29T06:17:22;9.27;;;3.53;;
29240;SDS011;16268;49.880;8.648;2023-03-29T06:19:48;5.47;;;3.00;;
29240;SDS011;16268;49.880;8.648;2023-03-29T06:22:14;8.75;;;3.55;;
29240;SDS011;16268;49.880;8.648;2023-03-29T06:24:39;7.90;;;3.20;;
29240;SDS011;16268;49.880;8.648;2023-03-29T06:27:05;7.68;;;3.30;;
29240;SDS011;16268;49.880;8.648;2023-03-29T06:29:31;6.22;;;3.50;;
29240;SDS011;16268;49.880;8.648;2023-03-29T06:31:56;7.88;;;3.60;;
29240;SDS011;16268;49.880;8.648;2023-03-29T06:34:22;7.30;;;3.28;;
29240;SDS011;16268;49.880;8.648;2023-03-29T06:36:47;7.63;;;3.47;;
29240;SDS011;16268;49.880;8.648;2023-03-29T06:39:14;8.65;;;3.53;;
29240;SDS011;16268;49.880;8.648;2023-03-29T06:41:40;12.32;;;5.32;;
29240;SDS011;16268;49.880;8.648;2023-03-29T06:44:06;11.55;;;5.05;;
29240;SDS011;16268;49.880;8.648;2023-03-29T06:46:32;11.63;;;5.28;;
29240;SDS011;16268;49.880;8.648;2023-03-29T06:48:58;11.18;;;5.50;;
29240;SDS011;16268;49.880;8.648;2023-03-29T06:51:23;9.55;;;4.00;;
29240;SDS011;16268;49.880;8.648;2023-03-29T06:53:49;7.43;;;3.97;;
29240;SDS011;16268;49.880;8.648;2023-03-29T06:56:15;9.05;;;3.70;;
29240;SDS011;16268;49.880;8.648;2023-03-29T06:58:41;7.10;;;3.47;;
29240;SDS011;16268;49.880;8.648;2023-03-29T07:01:08;7.03;;;3.63;;
29240;SDS011;16268;49.880;8.648;2023-03-29T07:03:35;6.60;;;3.70;;
29240;SDS011;16268;49.880;8.648;2023-03-29T07:06:03;6.22;;;3.55;;
29240;SDS011;16268;49.880;8.648;2023-03-29T07:08:34;7.90;;;3.55;;
29240;SDS011;16268;49.880;8.648;2023-03-29T07:11:04;6.90;;;3.28;;
29240;SDS011;16268;49.880;8.648;2023-03-29T07:13:31;7.25;;;3.90;;
29240;SDS011;16268;49.880;8.648;2023-03-29T07:15:56;6.20;;;3.20;;
29240;SDS011;16268;49.880;8.648;2023-03-29T07:18:22;8.25;;;3.40;;
29240;SDS011;16268;49.880;8.648;2023-03-29T07:20:48;8.15;;;3.53;;
29240;SDS011;16268;49.880;8.648;2023-03-29T07:23:13;6.53;;;3.08;;
29240;SDS011;16268;49.880;8.648;2023-03-29T07:25:39;8.07;;;3.58;;
29240;SDS011;16268;49.880;8.648;2023-03-29T07:28:05;6.88;;;3.15;;
29240;SDS011;16268;49.880;8.648;2023-03-29T07:30:31;8.52;;;3.80;;
29240;SDS011;16268;49.880;8.648;2023-03-29T07:32:57;7.78;;;3.40;;
29240;SDS011;16268;49.880;8.648;2023-03-29T07:45:23;8.38;;;3.42;;
29240;SDS011;16268;49.880;8.648;2023-03-29T07:47:52;7.07;;;3.47;;
29240;SDS011;16268;49.880;8.648;2023-03-29T07:50:20;8.93;;;3.38;;
29240;SDS011;16268;49.880;8.648;2023-03-29T07:52:45;6.38;;;3.20;;
29240;SDS011;16268;49.880;8.648;2023-03-29T07:55:12;9.07;;;2.97;;
29240;SDS011;16268;49.880;8.648;2023-03-29T07:57:38;6.53;;;2.85;;
29240;SDS011;16268;49.880;8.648;2023-03-29T08:00:05;6.38;;;3.20;;
29240;SDS011;16268;49.880;8.648;2023-03-29T08:02:44;4.65;;;2.65;;
29240;SDS011;16268;49.880;8.648;2023-03-29T08:05:12;9.57;;;3.60;;
29240;SDS011;16268;49.880;8.648;2023-03-29T08:07:42;7.80;;;3.03;;
29240;SDS011;16268;49.880;8.648;2023-03-29T08:10:18;5.70;;;3.05;;
29240;SDS011;16268;49.880;8.648;2023-03-29T08:12:45;5.88;;;3.15;;
29240;SDS011;16268;49.880;8.648;2023-03-29T08:15:12;6.75;;;2.92;;
29240;SDS011;16268;49.880;8.648;2023-03-29T08:17:38;7.32;;;3.05;;
29240;SDS011;16268;49.880;8.648;2023-03-29T08:20:05;10.88;;;5.00;;
29240;SDS011;16268;49.880;8.648;2023-03-29T08:22:33;8.63;;;3.67;;
29240;SDS011;16268;49.880;8.648;2023-03-29T08:24:59;6.53;;;2.90;;
29240;SDS011;16268;49.880;8.648;2023-03-29T08:27:24;8.20;;;3.85;;
29240;SDS011;16268;49.880;8.648;2023-03-29T08:29:50;6.70;;;2.95;;
29240;SDS011;16268;49.880;8.648;2023-03-29T08:32:16;7.57;;;3.60;;
29240;SDS011;16268;49.880;8.648;2023-03-29T08:34:41;7.10;;;3.22;;
29240;SDS011;16268;49.880;8.648;2023-03-29T08:37:07;9.02;;;4.38;;
29240;SDS011;16268;49.880;8.648;2023-03-29T08:39:33;8.43;;;3.33;;
29240;SDS011;16268;49.880;8.648;2023-03-29T08:44:50;8.57;;;3.90;;
29240;SDS011;16268;49.880;8.648;2023-03-29T08:50:37;6.85;;;3.17;;
29240;SDS011;16268;49.880;8.648;2023-03-29T08:53:26;6.80;;;3.28;;
29240;SDS011;16268;49.880;8.648;2023-03-29T08:55:57;5.82;;;3.20;;
29240;SDS011;16268;49.880;8.648;2023-03-29T08:58:26;7.30;;;4.33;;
29240;SDS011;16268;49.880;8.648;2023-03-29T09:00:56;8.55;;;4.15;;
29240;SDS011;16268;49.880;8.648;2023-03-29T09:05:56;8.73;;;3.45;;
29240;SDS011;16268;49.880;8.648;2023-03-29T09:08:24;10.65;;;3.97;;
29240;SDS011;16268;49.880;8.648;2023-03-29T09:13:57;6.97;;;3.58;;
29240;SDS011;16268;49.880;8.648;2023-03-29T09:19:15;7.10;;;3.53;;
29240;SDS011;16268;49.880;8.648;2023-03-29T09:30:31;6.60;;;3.50;;
29240;SDS011;16268;49.880;8.648;2023-03-29T09:33:15;7.45;;;3.40;;
29240;SDS011;16268;49.880;8.648;2023-03-29T09:36:06;6.05;;;3.08;;
29240;SDS011;16268;49.880;8.648;2023-03-29T09:38:41;5.88;;;3.15;;
29240;SDS011;16268;49.880;8.648;2023-03-29T09:43:56;8.93;;;3.08;;
29240;SDS011;16268;49.880;8.648;2023-03-29T09:46:35;6.40;;;3.10;;
29240;SDS011;16268;49.880;8.648;2023-03-29T09:49:05;8.35;;;3.08;;
29240;SDS011;16268;49.880;8.648;2023-03-29T09:51:35;9.55;;;3.63;;
29240;SDS011;16268;49.880;8.648;2023-03-29T09:54:02;7.40;;;3.80;;
29240;SDS011;16268;49.880;8.648;2023-03-29T09:56:28;6.20;;;3.13;;
29240;SDS011;16268;49.880;8.648;2023-03-29T09:58:54;7.22;;;3.40;;
29240;SDS011;16268;49.880;8.648;2023-03-29T10:01:19;5.90;;;2.90;;
29240;SDS011;16268;49.880;8.648;2023-03-29T10:03:50;5.50;;;2.72;;
29240;SDS011;16268;49.880;8.648;2023-03-29T10:06:17;6.43;;;3.70;;
29240;SDS011;16268;49.880;8.648;2023-03-29T10:08:49;6.78;;;3.60;;
29240;SDS011;16268;49.880;8.648;2023-03-29T10:11:37;5.65;;;2.70;;
29240;SDS011;16268;49.880;8.648;2023-03-29T10:16:40;11.70;;;6.30;;
29240;SDS011;16268;49.880;8.648;2023-03-29T10:19:19;10.10;;;4.75;;
29240;SDS011;16268;49.880;8.648;2023-03-29T10:21:52;15.80;;;10.27;;
29240;SDS011;16268;49.880;8.648;2023-03-29T10:24:19;10.77;;;6.80;;
29240;SDS011;16268;49.880;8.648;2023-03-29T10:26:46;8.18;;;5.30;;
29240;SDS011;16268;49.880;8.648;2023-03-29T10:29:19;8.57;;;4.70;;
29240;SDS011;16268;49.880;8.648;2023-03-29T10:31:45;9.30;;;5.38;;
29240;SDS011;16268;49.880;8.648;2023-03-29T10:34:12;9.50;;;5.22;;
29240;SDS011;16268;49.880;8.648;2023-03-29T10:36:43;6.53;;;3.35;;
29240;SDS011;16268;49.880;8.648;2023-03-29T10:39:16;7.68;;;3.20;;
29240;SDS011;16268;49.880;8.648;2023-03-29T10:41:43;9.68;;;3.03;;
29240;SDS011;16268;49.880;8.648;2023-03-29T10:44:25;6.63;;;3.30;;
29240;SDS011;16268;49.880;8.648;2023-03-29T10:47:05;8.13;;;3.03;;
29240;SDS011;16268;49.880;8.648;2023-03-29T10:49:43;6.57;;;3.00;;
29240;SDS011;16268;49.880;8.648;2023-03-29T10:52:13;5.87;;;2.60;;
29240;SDS011;16268;49.880;8.648;2023-03-29T10:57:07;5.05;;;2.45;;
29240;SDS011;16268;49.880;8.648;2023-03-29T11:04:47;6.97;;;3.10;;
29240;SDS011;16268;49.880;8.648;2023-03-29T11:10:04;6.85;;;3.08;;
29240;SDS011;16268;49.880;8.648;2023-03-29T11:12:39;8.32;;;2.67;;
29240;SDS011;16268;49.880;8.648;2023-03-29T11:21:09;6.30;;;2.65;;
29240;SDS011;16268;49.880;8.648;2023-03-29T11:24:26;5.57;;;2.58;;
29240;SDS011;16268;49.880;8.648;2023-03-29T11:26:57;13.00;;;2.92;;
29240;SDS011;16268;49.880;8.648;2023-03-29T11:29:34;5.05;;;2.63;;
29240;SDS011;16268;49.880;8.648;2023-03-29T11:34:59;6.28;;;2.70;;
29240;SDS011;16268;49.880;8.648;2023-03-29T11:38:46;7.35;;;2.70;;
29240;SDS011;16268;49.880;8.648;2023-03-29T11:41:20;6.60;;;3.17;;
29240;SDS011;16268;49.880;8.648;2023-03-29T11:51:47;17.15;;;9.95;;
29240;SDS011;16268;49.880;8.648;2023-03-29T11:54:38;24.67;;;14.00;;
29240;SDS011;16268;49.880;8.648;2023-03-29T12:00:00;7.45;;;4.25;;
29240;SDS011;16268;49.880;8.648;2023-03-29T12:02:35;8.07;;;3.03;;
29240;SDS011;16268;49.880;8.648;2023-03-29T12:05:17;7.68;;;3.15;;
29240;SDS011;16268;49.880;8.648;2023-03-29T12:07:47;5.70;;;2.83;;
29240;SDS011;16268;49.880;8.648;2023-03-29T12:10:18;5.60;;;3.08;;
29240;SDS011;16268;49.880;8.648;2023-03-29T12:12:58;6.38;;;2.95;;
29240;SDS011;16268;49.880;8.648;2023-03-29T12:15:28;7.03;;;2.92;;
29240;SDS011;16268;49.880;8.648;2023-03-29T12:18:03;6.20;;;2.60;;
29240;SDS011;16268;49.880;8.648;2023-03-29T12:20:56;5.55;;;2.50;;
29240;SDS011;16268;49.880;8.648;2023-03-29T12:23:24;5.70;;;2.40;;
29240;SDS011;16268;49.880;8.648;2023-03-29T12:26:08;6.32;;;2.65;;
29240;SDS011;16268;49.880;8.648;2023-03-29T12:40:12;8.15;;;3.00;;
29240;SDS011;16268;49.880;8.648;2023-03-29T12:42:43;6.10;;;2.78;;
29240;SDS011;16268;49.880;8.648;2023-03-29T12:45:14;7.22;;;2.90;;
29240;SDS011;16268;49.880;8.648;2023-03-29T12:47:45;6.53;;;2.72;;
29240;SDS011;16268;49.880;8.648;2023-03-29T12:50:30;7.68;;;2.58;;
29240;SDS011;16268;49.880;8.648;2023-03-29T12:53:02;5.40;;;2.30;;
29240;SDS011;16268;49.880;8.648;2023-03-29T12:55:54;5.55;;;2.60;;
29240;SDS011;16268;49.880;8.648;2023-03-29T13:01:23;6.30;;;2.75;;
29240;SDS011;16268;49.880;8.648;2023-03-29T13:04:11;7.28;;;2.95;;
29240;SDS011;16268;49.880;8.648;2023-03-29T13:11:51;6.85;;;2.95;;
29240;SDS011;16268;49.880;8.648;2023-03-29T13:14:19;5.40;;;2.22;;
29240;SDS011;16268;49.880;8.648;2023-03-29T13:16:47;6.05;;;2.80;;
29240;SDS011;16268;49.880;8.648;2023-03-29T13:19:20;6.57;;;2.53;;
29240;SDS011;16268;49.880;8.648;2023-03-29T13:22:19;6.15;;;2.85;;
29240;SDS011;16268;49.880;8.648;2023-03-29T13:28:01;7.28;;;2.60;;
29240;SDS011;16268;49.880;8.648;2023-03-29T13:33:52;6.07;;;2.67;;
29240;SDS011;16268;49.880;8.648;2023-03-29T13:39:46;5.57;;;2.67;;
29240;SDS011;16268;49.880;8.648;2023-03-29T13:42:18;7.88;;;3.00;;
29240;SDS011;16268;49.880;8.648;2023-03-29T13:44:47;11.60;;;6.30;;
29240;SDS011;16268;49.880;8.648;2023-03-29T13:49:59;14.00;;;7.53;;
29240;SDS011;16268;49.880;8.648;2023-03-29T13:52:31;8.15;;;4.40;;
29240;SDS011;16268;49.880;8.648;2023-03-29T13:55:16;12.73;;;6.63;;
29240;SDS011;16268;49.880;8.648;2023-03-29T13:57:56;11.00;;;5.53;;
29240;SDS011;16268;49.880;8.648;2023-03-29T14:02:59;5.45;;;2.60;;
29240;SDS011;16268;49.880;8.648;2023-03-29T14:05:30;7.63;;;2.75;;
29240;SDS011;16268;49.880;8.648;2023-03-29T14:08:12;6.68;;;3.53;;
29240;SDS011;16268;49.880;8.648;2023-03-29T14:10:43;6.18;;;2.65;;
29240;SDS011;16268;49.880;8.648;2023-03-29T14:13:11;5.45;;;2.45;;
29240;SDS011;16268;49.880;8.648;2023-03-29T14:15:44;6.03;;;2.85;;
29240;SDS011;16268;49.880;8.648;2023-03-29T14:18:15;7.28;;;2.72;;
29240;SDS011;16268;49.880;8.648;2023-03-29T14:20:45;6.15;;;2.53;;
29240;SDS011;16268;49.880;8.648;2023-03-29T14:23:14;6.35;;;2.22;;
29240;SDS011;16268;49.880;8.648;2023-03-29T14:25:44;5.97;;;2.38;;
29240;SDS011;16268;49.880;8.648;2023-03-29T14:28:11;4.65;;;2.03;;
29240;SDS011;16268;49.880;8.648;2023-03-29T14:30:43;5.38;;;2.20;;
29240;SDS011;16268;49.880;8.648;2023-03-29T14:33:12;6.53;;;2.42;;
29240;SDS011;16268;49.880;8.648;2023-03-29T14:35:38;4.93;;;2.40;;
29240;SDS011;16268;49.880;8.648;2023-03-29T14:38:04;6.68;;;2.65;;
29240;SDS011;16268;49.880;8.648;2023-03-29T14:40:30;5.15;;;2.22;;
29240;SDS011;16268;49.880;8.648;2023-03-29T14:42:56;6.50;;;2.60;;
29240;SDS011;16268;49.880;8.648;2023-03-29T14:45:26;4.57;;;2.33;;
29240;SDS011;16268;49.880;8.648;2023-03-29T14:47:51;7.18;;;2.00;;
29240;SDS011;16268;49.880;8.648;2023-03-29T14:50:18;5.53;;;2.30;;
29240;SDS011;16268;49.880;8.648;2023-03-29T14:52:50;6.25;;;2.38;;
29240;SDS011;16268;49.880;8.648;2023-03-29T14:55:15;4.20;;;2.05;;
29240;SDS011;16268;49.880;8.648;2023-03-29T14:57:47;5.53;;;2.25;;
29240;SDS011;16268;49.880;8.648;2023-03-29T15:00:19;5.75;;;2.00;;
29240;SDS011;16268;49.880;8.648;2023-03-29T15:02:52;5.28;;;2.10;;
29240;SDS011;16268;49.880;8.648;2023-03-29T15:05:22;5.30;;;1.85;;
29240;SDS011;16268;49.880;8.648;2023-03-29T15:07:49;5.57;;;2.25;;
29240;SDS011;16268;49.880;8.648;2023-03-29T15:10:18;6.50;;;2.45;;
29240;SDS011;16268;49.880;8.648;2023-03-29T15:12:44;3.55;;;1.70;;
29240;SDS011;16268;49.880;8.648;2023-03-29T15:15:10;5.13;;;1.60;;
29240;SDS011;16268;49.880;8.648;2023-03-29T15:17:38;4.95;;;2.05;;
29240;SDS011;16268;49.880;8.648;2023-03-29T15:20:06;4.20;;;1.88;;
29240;SDS011;16268;49.880;8.648;2023-03-29T15:23:01;3.65;;;1.63;;
29240;SDS011;16268;49.880;8.648;2023-03-29T15:25:44;4.03;;;1.80;;
29240;SDS011;16268;49.880;8.648;2023-03-29T15:28:24;5.18;;;2.17;;
29240;SDS011;16268;49.880;8.648;2023-03-29T15:31:01;4.10;;;1.70;;
29240;SDS011;16268;49.880;8.648;2023-03-29T15:33:35;5.93;;;1.92;;
29240;SDS011;16268;49.880;8.648;2023-03-29T15:36:03;5.15;;;1.95;;
29240;SDS011;16268;49.880;8.648;2023-03-29T15:38:30;6.00;;;1.95;;
29240;SDS011;16268;49.880;8.648;2023-03-29T15:40:56;4.38;;;1.88;;
29240;SDS011;16268;49.880;8.648;2023-03-29T15:43:22;6.82;;;1.92;;
29240;SDS011;16268;49.880;8.648;2023-03-29T15:45:48;6.28;;;1.85;;
29240;SDS011;16268;49.880;8.648;2023-03-29T15:48:14;4.78;;;1.88;;
29240;SDS011;16268;49.880;8.648;2023-03-29T15:50:45;4.65;;;2.33;;
29240;SDS011;16268;49.880;8.648;2023-03-29T15:53:11;5.35;;;2.20;;
29240;SDS011;16268;49.880;8.648;2023-03-29T15:55:38;5.63;;;1.98;;
29240;SDS011;16268;49.880;8.648;2023-03-29T15:58:07;5.97;;;2.25;;
29240;SDS011;16268;49.880;8.648;2023-03-29T16:00:37;5.90;;;2.10;;
29240;SDS011;16268;49.880;8.648;2023-03-29T16:03:04;6.18;;;2.10;;
29240;SDS011;16268;49.880;8.648;2023-03-29T16:05:30;7.18;;;2.10;;
29240;SDS011;16268;49.880;8.648;2023-03-29T16:07:56;6.68;;;2.80;;
29240;SDS011;16268;49.880;8.648;2023-03-29T16:10:22;5.47;;;2.30;;
29240;SDS011;16268;49.880;8.648;2023-03-29T16:12:47;8.82;;;3.88;;
29240;SDS011;16268;49.880;8.648;2023-03-29T16:15:15;8.40;;;3.38;;
29240;SDS011;16268;49.880;8.648;2023-03-29T16:17:43;7.70;;;3.33;;
29240;SDS011;16268;49.880;8.648;2023-03-29T16:20:09;4.93;;;2.47;;
29240;SDS011;16268;49.880;8.648;2023-03-29T16:22:35;6.30;;;2.50;;
29240;SDS011;16268;49.880;8.648;2023-03-29T16:25:01;5.25;;;2.13;;
29240;SDS011;16268;49.880;8.648;2023-03-29T16:27:29;8.00;;;2.10;;
29240;SDS011;16268;49.880;8.648;2023-03-29T16:29:56;5.55;;;2.20;;
29240;SDS011;16268;49.880;8.648;2023-03-29T16:32:22;5.40;;;2.38;;
29240;SDS011;16268;49.880;8.648;2023-03-29T16:34:48;6.43;;;2.50;;
29240;SDS011;16268;49.880;8.648;2023-03-29T16:37:14;6.20;;;2.67;;
29240;SDS011;16268;49.880;8.648;2023-03-29T16:39:39;6.90;;;2.25;;
29240;SDS011;16268;49.880;8.648;2023-03-29T16:42:05;6.35;;;2.17;;
29240;SDS011;16268;49.880;8.648;2023-03-29T16:44:31;6.78;;;2.85;;
29240;SDS011;16268;49.880;8.648;2023-03-29T16:46:56;5.88;;;1.98;;
29240;SDS011;16268;49.880;8.648;2023-03-29T16:49:22;8.57;;;2.80;;
29240;SDS011;16268;49.880;8.648;2023-03-29T16:51:48;5.55;;;2.40;;
29240;SDS011;16268;49.880;8.648;2023-03-29T16:54:14;5.43;;;2.03;;
29240;SDS011;16268;49.880;8.648;2023-03-29T16:56:43;5.25;;;1.88;;
29240;SDS011;16268;49.880;8.648;2023-03-29T16:59:09;4.40;;;1.75;;
29240;SDS011;16268;49.880;8.648;2023-03-29T17:01:34;5.53;;;2.25;;